createdAt,value
2019-02-24T00:00:02.603Z,34.80
2019-02-24T00:02:29.194Z,37.60
2019-02-24T00:04:55.768Z,45.10
2019-02-24T00:07:22.385Z,39.60
2019-02-24T00:09:48.956Z,36.77
2019-02-24T00:12:15.568Z,38.97
2019-02-24T00:14:42.144Z,32.53
2019-02-24T00:17:08.757Z,33.97
2019-02-24T00:19:35.341Z,33.50
2019-02-24T00:22:01.917Z,32.23
2019-02-24T00:24:28.494Z,34.17
2019-02-24T00:26:55.066Z,34.87
2019-02-24T00:29:21.721Z,33.60
2019-02-24T00:31:48.300Z,31.97
2019-02-24T00:34:14.870Z,31.93
2019-02-24T00:36:41.445Z,28.70
2019-02-24T00:39:08.024Z,33.00
2019-02-24T00:41:34.598Z,30.30
2019-02-24T00:44:01.177Z,32.50
2019-02-24T00:46:27.757Z,29.37
2019-02-24T00:48:54.336Z,29.03
2019-02-24T00:51:20.920Z,24.40
2019-02-24T00:53:47.482Z,28.90
2019-02-24T00:56:14.049Z,30.20
2019-02-24T00:58:40.631Z,26.83
2019-02-24T01:01:07.211Z,28.73
2019-02-24T01:03:33.792Z,29.07
2019-02-24T01:06:00.355Z,26.47
2019-02-24T01:08:26.944Z,22.37
2019-02-24T01:10:53.515Z,22.20
2019-02-24T01:13:20.086Z,18.60
2019-02-24T01:15:46.666Z,20.80
2019-02-24T01:18:13.273Z,18.30
2019-02-24T01:20:39.845Z,19.23
2019-02-24T01:23:06.435Z,18.17
2019-02-24T01:25:33.020Z,18.73
2019-02-24T01:27:59.633Z,19.53
2019-02-24T01:30:26.285Z,20.97
2019-02-24T01:32:52.910Z,21.83
2019-02-24T01:35:19.540Z,17.87
2019-02-24T01:37:46.139Z,20.00
2019-02-24T01:40:12.718Z,19.33
2019-02-24T01:42:39.411Z,16.30
2019-02-24T01:45:05.996Z,17.70
2019-02-24T01:47:32.587Z,15.67
2019-02-24T01:49:59.181Z,17.23
2019-02-24T01:52:25.754Z,16.53
2019-02-24T01:54:52.355Z,15.73
2019-02-24T01:57:18.930Z,16.33
2019-02-24T01:59:45.546Z,17.03
2019-02-24T02:02:12.126Z,15.83
2019-02-24T02:04:38.748Z,15.57
2019-02-24T02:07:05.325Z,15.40
2019-02-24T02:09:31.937Z,17.13
2019-02-24T02:11:58.518Z,15.77
2019-02-24T02:14:25.131Z,15.20
2019-02-24T02:16:51.703Z,14.67
2019-02-24T02:19:18.353Z,15.13
2019-02-24T02:21:44.974Z,14.47
2019-02-24T02:24:11.584Z,16.03
2019-02-24T02:26:38.155Z,16.60
2019-02-24T02:29:04.766Z,16.80
2019-02-24T02:31:31.338Z,16.53
2019-02-24T02:33:57.951Z,17.67
2019-02-24T02:36:24.529Z,19.77
2019-02-24T02:38:51.149Z,21.23
2019-02-24T02:41:17.722Z,21.63
2019-02-24T02:43:44.339Z,18.73
2019-02-24T02:46:10.976Z,18.50
2019-02-24T02:48:37.603Z,19.97
2019-02-24T02:51:04.189Z,19.03
2019-02-24T02:53:30.816Z,19.90
2019-02-24T02:55:57.389Z,19.40
2019-02-24T02:58:24.019Z,21.87
2019-02-24T03:00:50.604Z,16.33
2019-02-24T03:03:17.184Z,16.23
2019-02-24T03:05:43.764Z,17.40
2019-02-24T03:08:10.342Z,17.20
2019-02-24T03:10:36.917Z,16.47
2019-02-24T03:13:03.491Z,16.77
2019-02-24T03:15:30.083Z,16.70
2019-02-24T03:17:56.662Z,18.80
2019-02-24T03:20:23.229Z,17.97
2019-02-24T03:22:49.981Z,19.43
2019-02-24T03:25:16.566Z,20.20
2019-02-24T03:27:43.147Z,18.47
2019-02-24T03:30:09.733Z,18.90
2019-02-24T03:32:36.441Z,15.93
2019-02-24T03:35:03.011Z,16.13
2019-02-24T03:37:29.595Z,16.43
2019-02-24T03:39:56.173Z,14.10
2019-02-24T03:42:22.751Z,15.17
2019-02-24T03:44:49.351Z,15.40
2019-02-24T03:47:15.989Z,17.77
2019-02-24T03:49:42.630Z,17.63
2019-02-24T03:52:09.219Z,17.90
2019-02-24T03:54:35.781Z,15.80
2019-02-24T03:57:02.363Z,17.20
2019-02-24T03:59:28.929Z,16.23
2019-02-24T04:01:55.504Z,18.83
2019-02-24T04:04:22.099Z,18.10
2019-02-24T04:06:48.675Z,17.60
2019-02-24T04:09:15.256Z,18.10
2019-02-24T04:11:41.828Z,20.67
2019-02-24T04:14:08.400Z,19.20
2019-02-24T04:16:34.990Z,19.33
2019-02-24T04:19:01.562Z,17.13
2019-02-24T04:21:28.164Z,19.30
2019-02-24T04:23:54.736Z,18.87
2019-02-24T04:26:21.342Z,19.83
2019-02-24T04:28:47.922Z,20.67
2019-02-24T04:31:14.529Z,20.60
2019-02-24T04:33:41.103Z,19.53
2019-02-24T04:36:07.731Z,20.63
2019-02-24T04:38:34.318Z,20.20
2019-02-24T04:41:00.904Z,18.73
2019-02-24T04:43:27.541Z,20.60
2019-02-24T04:45:54.168Z,18.90
2019-02-24T04:48:20.746Z,19.63
2019-02-24T04:50:47.336Z,20.40
2019-02-24T04:53:13.913Z,20.27
2019-02-24T04:55:40.516Z,19.80
2019-02-24T04:58:07.097Z,21.83
2019-02-24T05:00:33.726Z,19.67
2019-02-24T05:03:00.304Z,20.70
2019-02-24T05:05:26.901Z,20.80
2019-02-24T05:07:53.470Z,20.93
2019-02-24T05:10:20.070Z,19.37
2019-02-24T05:12:46.652Z,22.17
2019-02-24T05:15:13.272Z,19.30
2019-02-24T05:17:39.841Z,21.87
2019-02-24T05:20:06.456Z,20.80
2019-02-24T05:22:33.031Z,20.43
2019-02-24T05:24:59.645Z,19.87
2019-02-24T05:27:26.227Z,20.27
2019-02-24T05:29:52.831Z,21.20
2019-02-24T05:32:19.406Z,21.37
2019-02-24T05:34:46.008Z,21.50
2019-02-24T05:37:12.581Z,22.73
2019-02-24T05:39:39.185Z,23.40
2019-02-24T05:42:05.812Z,21.60
2019-02-24T05:44:32.403Z,21.60
2019-02-24T05:46:58.996Z,21.97
2019-02-24T05:49:25.585Z,21.90
2019-02-24T05:51:52.166Z,20.40
2019-02-24T05:54:18.733Z,21.10
2019-02-24T05:56:45.317Z,19.87
2019-02-24T05:59:11.905Z,19.67
2019-02-24T06:01:38.476Z,19.07
2019-02-24T06:04:05.064Z,23.50
2019-02-24T06:06:31.662Z,21.13
2019-02-24T06:08:58.249Z,19.27
2019-02-24T06:11:24.884Z,20.43
2019-02-24T06:13:52.228Z,22.20
2019-02-24T06:16:19.031Z,20.13
2019-02-24T06:18:45.604Z,22.33
2019-02-24T06:21:12.184Z,20.63
2019-02-24T06:23:38.759Z,21.23
2019-02-24T06:26:05.334Z,21.63
2019-02-24T06:28:31.931Z,22.30
2019-02-24T06:30:58.528Z,21.90
2019-02-24T06:33:25.101Z,19.63
2019-02-24T06:35:51.687Z,21.37
2019-02-24T06:38:18.261Z,21.47
2019-02-24T06:40:44.875Z,23.17
2019-02-24T06:43:11.446Z,19.60
2019-02-24T06:45:38.060Z,23.37
2019-02-24T06:48:04.624Z,20.23
2019-02-24T06:50:35.425Z,20.00
2019-02-24T06:52:59.595Z,21.50
2019-02-24T06:55:26.191Z,20.70
2019-02-24T06:57:52.758Z,22.30
2019-02-24T07:00:19.371Z,19.13
2019-02-24T07:02:45.937Z,19.43
2019-02-24T07:05:12.563Z,18.80
2019-02-24T07:07:39.131Z,19.07
2019-02-24T07:10:05.698Z,19.50
2019-02-24T07:12:32.276Z,20.20
2019-02-24T07:14:58.846Z,20.30
2019-02-24T07:17:25.428Z,22.60
2019-02-24T07:19:51.997Z,19.40
2019-02-24T07:22:18.574Z,17.73
2019-02-24T07:24:45.177Z,17.27
2019-02-24T07:27:11.761Z,16.27
2019-02-24T07:29:38.336Z,18.27
2019-02-24T07:32:04.911Z,16.33
2019-02-24T07:34:31.507Z,15.77
2019-02-24T07:36:58.093Z,18.33
2019-02-24T07:39:24.671Z,18.43
2019-02-24T07:41:51.274Z,16.53
2019-02-24T07:44:17.850Z,17.47
2019-02-24T07:46:44.454Z,17.90
2019-02-24T07:49:11.024Z,16.27
2019-02-24T07:51:37.646Z,16.17
2019-02-24T07:54:04.224Z,17.13
2019-02-24T07:56:30.818Z,17.23
2019-02-24T07:58:57.391Z,16.30
2019-02-24T08:01:24.010Z,15.47
2019-02-24T08:03:50.588Z,17.70
2019-02-24T08:06:17.223Z,19.60
2019-02-24T08:08:43.809Z,18.07
2019-02-24T08:11:10.405Z,17.43
2019-02-24T08:13:37.065Z,16.33
2019-02-24T08:16:03.681Z,15.70
2019-02-24T08:18:30.272Z,15.13
2019-02-24T08:20:56.949Z,17.60
2019-02-24T08:23:23.538Z,14.03
2019-02-24T08:25:50.131Z,14.80
2019-02-24T08:28:16.703Z,15.57
2019-02-24T08:30:43.284Z,15.47
2019-02-24T08:33:09.868Z,15.03
2019-02-24T08:35:36.740Z,17.43
2019-02-24T08:38:03.418Z,16.17
2019-02-24T08:40:29.994Z,15.97
2019-02-24T08:42:56.563Z,15.63
2019-02-24T08:45:23.498Z,14.83
2019-02-24T08:47:50.084Z,17.63
2019-02-24T08:50:16.660Z,15.83
2019-02-24T08:52:43.243Z,16.20
2019-02-24T08:55:09.811Z,15.97
2019-02-24T08:57:36.384Z,19.03
2019-02-24T09:00:03.054Z,17.07
2019-02-24T09:02:29.629Z,15.90
2019-02-24T09:04:56.204Z,16.87
2019-02-24T09:07:22.830Z,16.70
2019-02-24T09:09:49.415Z,15.97
2019-02-24T09:12:16.014Z,16.37
2019-02-24T09:14:42.598Z,16.40
2019-02-24T09:17:09.218Z,16.00
2019-02-24T09:19:36.717Z,16.97
2019-02-24T09:22:03.588Z,17.87
2019-02-24T09:24:30.158Z,18.13
2019-02-24T09:26:56.751Z,16.40
2019-02-24T09:29:23.331Z,16.93
2019-02-24T09:31:49.936Z,17.83
2019-02-24T09:34:16.505Z,18.03
2019-02-24T09:36:43.111Z,21.30
2019-02-24T09:39:09.674Z,18.87
2019-02-24T09:41:36.267Z,18.53
2019-02-24T09:44:02.843Z,17.57
2019-02-24T09:46:29.456Z,19.17
2019-02-24T09:48:56.035Z,17.43
2019-02-24T09:51:22.655Z,18.07
2019-02-24T09:53:49.236Z,19.57
2019-02-24T09:56:15.838Z,18.00
2019-02-24T09:58:42.523Z,17.77
2019-02-24T10:01:10.967Z,18.87
2019-02-24T10:03:37.403Z,17.27
2019-02-24T10:06:03.971Z,18.27
2019-02-24T10:08:30.559Z,19.70
2019-02-24T10:10:57.135Z,18.07
2019-02-24T10:13:23.722Z,20.37
2019-02-24T10:15:50.295Z,21.30
2019-02-24T10:18:16.923Z,19.13
2019-02-24T10:20:43.507Z,18.10
2019-02-24T10:23:10.069Z,18.27
2019-02-24T10:25:36.651Z,18.97
2019-02-24T10:28:03.217Z,18.00
2019-02-24T10:30:29.788Z,18.90
2019-02-24T10:32:56.369Z,18.07
2019-02-24T10:35:22.942Z,19.67
2019-02-24T10:37:49.510Z,20.87
2019-02-24T10:40:16.102Z,20.53
2019-02-24T10:42:42.678Z,18.43
2019-02-24T10:45:09.259Z,17.83
2019-02-24T10:47:35.867Z,18.23
2019-02-24T10:50:02.435Z,18.63
2019-02-24T10:52:30.643Z,18.60
2019-02-24T10:54:57.407Z,18.83
2019-02-24T10:57:24.010Z,19.77
2019-02-24T10:59:50.593Z,20.17
2019-02-24T11:02:17.202Z,20.03
2019-02-24T11:04:43.782Z,19.07
2019-02-24T11:07:10.388Z,18.63
2019-02-24T11:09:36.966Z,19.80
2019-02-24T11:12:03.571Z,19.47
2019-02-24T11:14:30.141Z,20.17
2019-02-24T11:16:56.749Z,20.43
2019-02-24T11:19:23.315Z,21.03
2019-02-24T11:21:49.932Z,19.63
2019-02-24T11:24:16.630Z,18.00
2019-02-24T11:26:43.200Z,20.60
2019-02-24T11:29:09.867Z,19.90
2019-02-24T11:31:38.547Z,21.17
2019-02-24T11:34:04.842Z,20.80
2019-02-24T11:36:31.427Z,18.47
2019-02-24T11:38:58.016Z,20.57
2019-02-24T11:41:24.601Z,19.33
2019-02-24T11:43:51.178Z,20.03
2019-02-24T11:46:17.796Z,20.23
2019-02-24T11:48:44.375Z,18.90
2019-02-24T11:51:10.970Z,21.10
2019-02-24T11:53:37.556Z,19.40
2019-02-24T11:56:04.140Z,19.87
2019-02-24T11:58:30.714Z,20.77
2019-02-24T12:00:57.288Z,19.03
2019-02-24T12:03:23.871Z,19.93
2019-02-24T12:05:50.457Z,19.60
2019-02-24T12:08:17.030Z,19.93
2019-02-24T12:10:43.613Z,20.00
2019-02-24T12:13:10.183Z,20.57
2019-02-24T12:15:36.759Z,18.27
2019-02-24T12:18:03.333Z,19.47
2019-02-24T12:20:29.912Z,18.50
2019-02-24T12:22:56.533Z,20.07
2019-02-24T12:25:23.103Z,18.37
2019-02-24T12:27:49.692Z,18.67
2019-02-24T12:30:16.266Z,19.80
2019-02-24T12:32:42.882Z,20.23
2019-02-24T12:35:09.454Z,19.93
2019-02-24T12:37:36.051Z,19.17
2019-02-24T12:40:02.621Z,17.53
2019-02-24T12:42:29.191Z,18.67
2019-02-24T12:44:56.050Z,20.97
2019-02-24T12:47:22.782Z,19.17
2019-02-24T12:49:49.355Z,20.83
2019-02-24T12:52:15.947Z,20.97
2019-02-24T12:54:42.525Z,22.00
2019-02-24T12:57:09.106Z,20.70
2019-02-24T12:59:35.681Z,19.73
2019-02-24T13:02:05.748Z,18.20
2019-02-24T13:04:30.550Z,19.50
2019-02-24T13:06:57.731Z,19.00
2019-02-24T13:09:24.386Z,18.80
2019-02-24T13:11:50.967Z,19.87
2019-02-24T13:14:17.561Z,19.73
2019-02-24T13:16:44.134Z,20.17
2019-02-24T13:19:10.846Z,18.73
2019-02-24T13:21:37.424Z,21.83
2019-02-24T13:24:04.035Z,19.60
2019-02-24T13:26:30.613Z,20.10
2019-02-24T13:28:57.226Z,20.07
2019-02-24T13:31:23.798Z,19.00
2019-02-24T13:33:50.408Z,19.60
2019-02-24T13:36:16.977Z,19.87
2019-02-24T13:38:43.584Z,19.53
2019-02-24T13:41:10.164Z,22.40
2019-02-24T13:43:36.787Z,19.57
2019-02-24T13:46:03.355Z,19.23
2019-02-24T13:48:29.976Z,21.07
2019-02-24T13:50:56.623Z,20.70
2019-02-24T13:53:23.219Z,20.00
2019-02-24T13:55:49.897Z,22.03
2019-02-24T13:58:16.492Z,20.47
2019-02-24T14:00:43.359Z,20.10
2019-02-24T14:03:10.122Z,19.60
2019-02-24T14:05:36.727Z,22.33
2019-02-24T14:08:03.295Z,20.83
2019-02-24T14:10:29.914Z,21.60
2019-02-24T14:12:56.534Z,19.43
2019-02-24T14:15:23.213Z,20.27
2019-02-24T14:17:49.783Z,20.27
2019-02-24T14:20:16.351Z,21.43
2019-02-24T14:22:42.936Z,21.07
2019-02-24T14:25:09.506Z,21.43
2019-02-24T14:27:36.079Z,22.27
2019-02-24T14:30:02.653Z,22.90
2019-02-24T14:32:32.967Z,18.87
2019-02-24T14:34:57.521Z,21.20
2019-02-24T14:37:24.094Z,21.27
2019-02-24T14:39:50.712Z,22.63
2019-02-24T14:42:17.290Z,20.43
2019-02-24T14:44:43.954Z,20.70
2019-02-24T14:47:10.522Z,23.03
2019-02-24T14:49:37.093Z,21.37
2019-02-24T14:52:03.662Z,21.20
2019-02-24T14:54:30.279Z,22.63
2019-02-24T14:56:56.846Z,22.07
2019-02-24T14:59:23.459Z,22.80
2019-02-24T15:01:50.044Z,21.37
2019-02-24T15:04:16.662Z,23.03
2019-02-24T15:06:43.232Z,24.20
2019-02-24T15:09:09.855Z,23.63
2019-02-24T15:11:36.421Z,21.77
2019-02-24T15:14:03.022Z,23.70
2019-02-24T15:16:29.599Z,23.97
2019-02-24T15:18:56.966Z,25.77
2019-02-24T15:21:23.546Z,24.83
2019-02-24T15:23:50.147Z,25.20
2019-02-24T15:26:16.725Z,26.07
2019-02-24T15:28:43.325Z,24.67
2019-02-24T15:31:09.911Z,26.47
2019-02-24T15:33:36.473Z,24.57
2019-02-24T15:36:03.050Z,23.47
2019-02-24T15:38:29.627Z,26.33
2019-02-24T15:40:56.203Z,25.40
2019-02-24T15:43:22.778Z,26.03
2019-02-24T15:45:49.372Z,23.30
2019-02-24T15:48:15.944Z,24.87
2019-02-24T15:50:42.585Z,22.80
2019-02-24T15:53:09.412Z,24.77
2019-02-24T15:55:35.994Z,23.37
2019-02-24T15:58:02.566Z,23.13
2019-02-24T16:00:29.147Z,21.67
2019-02-24T16:03:01.439Z,22.63
2019-02-24T16:05:24.025Z,25.57
2019-02-24T16:07:50.594Z,26.67
2019-02-24T16:10:17.209Z,29.63
2019-02-24T16:12:43.817Z,25.93
2019-02-24T16:15:11.167Z,22.87
2019-02-24T16:17:37.842Z,22.07
2019-02-24T16:20:04.445Z,22.33
2019-02-24T16:22:31.128Z,23.27
2019-02-24T16:24:57.732Z,23.23
2019-02-24T16:27:24.314Z,21.67
2019-02-24T16:29:52.738Z,21.47
2019-02-24T16:32:19.281Z,22.67
2019-02-24T16:34:45.880Z,23.60
2019-02-24T16:37:12.462Z,23.10
2019-02-24T16:39:39.075Z,23.03
2019-02-24T16:42:05.645Z,23.63
2019-02-24T16:44:32.248Z,23.57
2019-02-24T16:46:58.809Z,26.93
2019-02-24T16:49:25.410Z,25.40
2019-02-24T16:51:52.020Z,30.77
2019-02-24T16:54:18.640Z,34.13
2019-02-24T16:56:46.230Z,29.67
2019-02-24T16:59:12.845Z,31.73
2019-02-24T17:01:39.414Z,30.50
2019-02-24T17:04:05.996Z,31.20
2019-02-24T17:06:32.563Z,32.47
2019-02-24T17:09:02.547Z,32.17
2019-02-24T17:11:27.431Z,35.63
2019-02-24T17:13:54.007Z,34.30
2019-02-24T17:16:20.642Z,30.27
2019-02-24T17:18:47.217Z,28.47
2019-02-24T17:21:13.826Z,26.23
2019-02-24T17:23:49.569Z,27.03
2019-02-24T17:26:08.692Z,28.37
2019-02-24T17:28:35.271Z,28.43
2019-02-24T17:31:01.852Z,31.33
2019-02-24T17:33:30.210Z,31.23
2019-02-24T17:35:56.720Z,30.47
2019-02-24T17:38:23.304Z,31.00
2019-02-24T17:40:49.865Z,33.97
2019-02-24T17:43:17.771Z,33.60
2019-02-24T17:45:45.324Z,34.30
2019-02-24T17:48:11.925Z,33.17
2019-02-24T17:50:38.505Z,34.70
2019-02-24T17:53:05.077Z,36.17
2019-02-24T17:55:31.943Z,32.00
2019-02-24T17:57:58.657Z,34.73
2019-02-24T18:00:25.323Z,34.07
2019-02-24T18:02:52.015Z,31.07
2019-02-24T18:05:18.723Z,33.10
2019-02-24T18:07:45.294Z,31.80
2019-02-24T18:10:11.991Z,30.80
2019-02-24T18:12:38.584Z,30.83
2019-02-24T18:15:05.177Z,30.43
2019-02-24T18:17:31.750Z,29.77
2019-02-24T18:19:58.363Z,30.73
2019-02-24T18:22:24.936Z,29.97
2019-02-24T18:24:51.520Z,30.20
2019-02-24T18:27:18.095Z,30.97
2019-02-24T18:29:44.671Z,34.30
2019-02-24T18:32:11.247Z,31.80
2019-02-24T18:34:37.814Z,35.63
2019-02-24T18:37:04.386Z,34.07
2019-02-24T18:39:30.965Z,41.67
2019-02-24T18:41:57.567Z,34.20
2019-02-24T18:44:24.212Z,30.43
2019-02-24T18:46:50.792Z,32.57
2019-02-24T18:49:17.365Z,33.37
2019-02-24T18:51:43.937Z,31.13
2019-02-24T18:54:10.506Z,31.37
2019-02-24T18:56:37.076Z,32.30
2019-02-24T18:59:03.671Z,34.93
2019-02-24T19:01:30.247Z,32.20
2019-02-24T19:03:58.030Z,28.83
2019-02-24T19:06:24.879Z,29.50
2019-02-24T19:08:51.455Z,30.03
2019-02-24T19:11:18.675Z,30.27
2019-02-24T19:13:45.369Z,30.87
2019-02-24T19:16:11.961Z,29.60
2019-02-24T19:18:38.540Z,32.50
2019-02-24T19:21:05.148Z,30.37
2019-02-24T19:23:31.715Z,30.17
2019-02-24T19:25:58.310Z,31.27
2019-02-24T19:28:24.886Z,29.53
2019-02-24T19:30:51.495Z,28.80
2019-02-24T19:33:18.123Z,28.73
2019-02-24T19:35:44.749Z,30.30
2019-02-24T19:38:11.326Z,27.97
2019-02-24T19:40:37.951Z,27.90
2019-02-24T19:43:04.512Z,30.20
2019-02-24T19:45:31.350Z,29.53
2019-02-24T19:47:58.063Z,27.57
2019-02-24T19:50:24.918Z,29.00
2019-02-24T19:52:51.590Z,26.53
2019-02-24T19:55:18.201Z,24.37
2019-02-24T19:57:44.780Z,26.90
2019-02-24T20:00:11.359Z,26.90
2019-02-24T20:02:39.069Z,28.03
2019-02-24T20:05:05.660Z,27.53
2019-02-24T20:07:32.265Z,29.20
2019-02-24T20:09:58.844Z,26.50
2019-02-24T20:12:25.449Z,26.80
2019-02-24T20:14:52.052Z,26.83
2019-02-24T20:17:18.688Z,26.77
2019-02-24T20:19:45.262Z,28.07
2019-02-24T20:22:11.878Z,25.53
2019-02-24T20:24:38.459Z,27.90
2019-02-24T20:27:05.064Z,27.07
2019-02-24T20:29:31.642Z,26.40
2019-02-24T20:31:58.247Z,26.20
2019-02-24T20:34:25.761Z,26.20
2019-02-24T20:36:52.705Z,25.37
2019-02-24T20:39:19.279Z,26.67
2019-02-24T20:41:45.882Z,27.33
2019-02-24T20:44:12.467Z,27.17
2019-02-24T20:46:39.054Z,26.30
2019-02-24T20:49:05.622Z,25.37
2019-02-24T20:51:32.321Z,27.27
2019-02-24T20:53:58.890Z,25.10
2019-02-24T20:56:25.483Z,26.83
2019-02-24T20:58:52.068Z,26.03
2019-02-24T21:01:18.682Z,27.83
2019-02-24T21:03:45.237Z,27.57
2019-02-24T21:06:11.821Z,26.33
2019-02-24T21:08:38.391Z,28.23
2019-02-24T21:11:04.961Z,25.60
2019-02-24T21:13:31.533Z,25.87
2019-02-24T21:15:58.109Z,25.73
2019-02-24T21:18:24.732Z,26.67
2019-02-24T21:20:51.311Z,29.20
2019-02-24T21:23:17.888Z,29.57
2019-02-24T21:25:44.464Z,28.73
2019-02-24T21:28:11.053Z,30.57
2019-02-24T21:30:37.639Z,31.33
2019-02-24T21:33:04.215Z,30.40
2019-02-24T21:35:30.776Z,30.90
2019-02-24T21:37:57.344Z,30.17
2019-02-24T21:40:23.923Z,30.17
2019-02-24T21:42:50.482Z,31.03
2019-02-24T21:45:17.062Z,30.73
2019-02-24T21:47:43.645Z,32.30
2019-02-24T21:50:10.217Z,28.90
2019-02-24T21:52:38.295Z,29.93
2019-02-24T21:55:05.004Z,27.20
2019-02-24T21:57:31.598Z,28.17
2019-02-24T21:59:58.242Z,25.97
2019-02-24T22:02:24.827Z,26.33
2019-02-24T22:04:51.402Z,25.33
2019-02-24T22:07:18.011Z,25.17
2019-02-24T22:09:44.602Z,23.73
2019-02-24T22:12:11.463Z,25.17
2019-02-24T22:14:38.511Z,25.23
2019-02-24T22:17:05.842Z,24.77
2019-02-24T22:19:32.411Z,25.00
2019-02-24T22:21:59.024Z,21.60
2019-02-24T22:24:25.588Z,21.47
2019-02-24T22:26:52.215Z,22.40
2019-02-24T22:29:18.787Z,22.87
2019-02-24T22:31:45.357Z,22.07
2019-02-24T22:34:11.931Z,23.17
2019-02-24T22:36:38.526Z,22.70
2019-02-24T22:39:05.090Z,23.30
2019-02-24T22:41:31.670Z,23.63
2019-02-24T22:43:58.240Z,21.97
2019-02-24T22:46:24.807Z,21.80
2019-02-24T22:48:51.384Z,23.10
2019-02-24T22:51:17.954Z,22.03
2019-02-24T22:53:44.540Z,20.97
2019-02-24T22:56:11.111Z,21.57
2019-02-24T22:58:37.690Z,23.60
2019-02-24T23:01:04.264Z,22.90
2019-02-24T23:03:30.833Z,22.73
2019-02-24T23:05:57.408Z,22.83
2019-02-24T23:08:23.985Z,23.43
2019-02-24T23:10:50.557Z,22.30
2019-02-24T23:13:17.126Z,23.33
2019-02-24T23:15:43.699Z,23.43
2019-02-24T23:18:10.295Z,21.13
2019-02-24T23:20:36.866Z,22.77
2019-02-24T23:23:04.469Z,19.63
2019-02-24T23:25:31.049Z,17.57
2019-02-24T23:27:57.618Z,22.30
2019-02-24T23:30:24.216Z,22.00
2019-02-24T23:32:50.794Z,19.70
2019-02-24T23:35:17.371Z,20.63
2019-02-24T23:37:43.943Z,21.83
2019-02-24T23:40:10.510Z,21.83
2019-02-24T23:42:37.118Z,19.53
2019-02-24T23:45:10.157Z,21.93
2019-02-24T23:47:32.018Z,19.90
2019-02-24T23:49:58.587Z,19.97
2019-02-24T23:52:25.198Z,19.47
2019-02-24T23:54:51.777Z,19.10
2019-02-24T23:57:18.364Z,19.33
2019-02-24T23:59:44.945Z,18.77
